createdAt,value
2018-05-04T00:01:32.596Z,9.20
2018-05-04T00:04:04.467Z,9.10
2018-05-04T00:06:36.363Z,9.10
2018-05-04T00:09:09.041Z,9.00
2018-05-04T00:11:41.769Z,9.00
2018-05-04T00:14:13.646Z,9.00
2018-05-04T00:16:45.536Z,9.00
2018-05-04T00:19:18.265Z,9.00
2018-05-04T00:21:50.229Z,9.00
2018-05-04T00:24:22.194Z,9.00
2018-05-04T00:26:54.415Z,9.00
2018-05-04T00:29:26.286Z,9.00
2018-05-04T00:31:58.170Z,9.00
2018-05-04T00:34:30.145Z,8.90
2018-05-04T00:37:02.042Z,8.90
2018-05-04T00:39:34.781Z,8.90
2018-05-04T00:42:06.678Z,8.80
2018-05-04T00:44:39.318Z,8.80
2018-05-04T00:47:11.214Z,8.70
2018-05-04T00:49:43.076Z,8.80
2018-05-04T00:52:15.982Z,8.70
2018-05-04T00:54:47.860Z,8.70
2018-05-04T00:57:19.746Z,8.60
2018-05-04T00:59:51.866Z,8.60
2018-05-04T01:02:24.034Z,8.60
2018-05-04T01:04:55.902Z,8.60
2018-05-04T01:07:27.798Z,8.50
2018-05-04T01:09:59.666Z,8.50
2018-05-04T01:12:31.561Z,8.50
2018-05-04T01:15:04.203Z,8.40
2018-05-04T01:17:36.098Z,8.40
2018-05-04T01:20:08.996Z,8.30
2018-05-04T01:22:40.899Z,8.30
2018-05-04T01:25:12.820Z,8.30
2018-05-04T01:27:44.987Z,8.30
2018-05-04T01:30:16.858Z,8.20
2018-05-04T01:32:48.759Z,8.10
2018-05-04T01:35:20.872Z,8.10
2018-05-04T01:37:53.057Z,8.10
2018-05-04T01:40:25.045Z,8.10
2018-05-04T01:42:57.663Z,8.00
2018-05-04T01:45:30.310Z,8.00
2018-05-04T01:48:02.207Z,8.00
2018-05-04T01:50:34.846Z,8.00
2018-05-04T01:53:07.061Z,7.90
2018-05-04T01:55:39.231Z,8.00
2018-05-04T01:58:11.142Z,7.90
2018-05-04T02:00:43.006Z,7.90
2018-05-04T02:03:14.899Z,7.90
2018-05-04T02:05:46.783Z,7.80
2018-05-04T02:08:18.690Z,7.90
2018-05-04T02:10:50.554Z,7.90
2018-05-04T02:13:22.760Z,7.80
2018-05-04T02:15:54.671Z,7.80
2018-05-04T02:18:26.882Z,7.80
2018-05-04T02:20:58.795Z,7.70
2018-05-04T02:23:30.754Z,7.70
2018-05-04T02:26:02.626Z,7.60
2018-05-04T02:28:34.530Z,7.60
2018-05-04T02:31:06.695Z,7.60
2018-05-04T02:33:38.626Z,7.60
2018-05-04T02:36:10.561Z,7.60
2018-05-04T02:38:42.522Z,7.60
2018-05-04T02:41:14.486Z,7.60
2018-05-04T02:43:46.451Z,7.60
2018-05-04T02:46:18.410Z,7.60
2018-05-04T02:48:50.307Z,7.60
2018-05-04T02:51:22.954Z,7.40
2018-05-04T02:53:55.113Z,7.40
2018-05-04T02:56:27.080Z,7.40
2018-05-04T02:58:59.038Z,7.40
2018-05-04T03:01:30.913Z,7.40
2018-05-04T03:04:02.825Z,7.40
2018-05-04T03:06:34.700Z,7.30
2018-05-04T03:09:06.598Z,7.30
2018-05-04T03:11:38.463Z,7.30
2018-05-04T03:14:10.352Z,7.30
2018-05-04T03:16:43.238Z,7.30
2018-05-04T03:19:15.153Z,7.20
2018-05-04T03:21:47.022Z,7.20
2018-05-04T03:24:18.921Z,7.20
2018-05-04T03:26:50.787Z,7.10
2018-05-04T03:29:22.667Z,7.10
2018-05-04T03:31:54.544Z,7.10
2018-05-04T03:34:26.504Z,7.00
2018-05-04T03:36:58.465Z,7.00
2018-05-04T03:39:30.699Z,7.00
2018-05-04T03:42:02.568Z,6.90
2018-05-04T03:44:34.446Z,6.90
2018-05-04T03:47:06.573Z,6.80
2018-05-04T03:49:38.461Z,6.80
2018-05-04T03:52:10.399Z,6.80
2018-05-04T03:54:42.245Z,6.80
2018-05-04T03:57:26.853Z,6.80
2018-05-04T04:00:10.962Z,6.80
2018-05-04T04:02:55.106Z,6.80
2018-05-04T04:05:26.998Z,6.90
2018-05-04T04:07:58.866Z,6.90
2018-05-04T04:10:30.999Z,6.90
2018-05-04T04:13:02.867Z,6.90
2018-05-04T04:15:35.041Z,6.90
2018-05-04T04:18:07.126Z,6.90
2018-05-04T04:20:39.023Z,7.00
2018-05-04T04:23:10.898Z,7.00
2018-05-04T04:25:43.570Z,7.10
2018-05-04T04:28:16.280Z,7.20
2018-05-04T04:30:48.107Z,7.20
2018-05-04T04:33:20.742Z,7.40
2018-05-04T04:35:52.759Z,7.40
2018-05-04T04:38:25.487Z,7.60
2018-05-04T04:40:57.446Z,7.50
2018-05-04T04:43:29.414Z,7.60
2018-05-04T04:46:01.308Z,7.70
2018-05-04T04:48:33.173Z,7.80
2018-05-04T04:51:05.841Z,8.10
2018-05-04T04:53:37.770Z,8.10
2018-05-04T04:56:09.681Z,8.30
2018-05-04T04:58:42.415Z,9.60
2018-05-04T05:01:14.310Z,9.60
2018-05-04T05:03:47.050Z,11.70
2018-05-04T05:06:19.278Z,11.70
2018-05-04T05:08:51.182Z,12.70
2018-05-04T05:11:23.417Z,13.50
2018-05-04T05:13:55.573Z,14.10
2018-05-04T05:16:27.473Z,14.80
2018-05-04T05:18:59.450Z,15.30
2018-05-04T05:21:31.666Z,15.90
2018-05-04T05:24:03.574Z,16.60
2018-05-04T05:26:35.545Z,17.00
2018-05-04T05:29:07.501Z,17.30
2018-05-04T05:31:39.408Z,17.60
2018-05-04T05:34:12.399Z,18.00
2018-05-04T05:36:44.314Z,18.00
2018-05-04T05:39:17.702Z,18.20
2018-05-04T05:41:49.918Z,18.20
2018-05-04T05:44:21.814Z,18.70
2018-05-04T05:46:53.945Z,18.70
2018-05-04T05:49:25.834Z,18.40
2018-05-04T05:51:57.885Z,18.70
2018-05-04T05:54:29.733Z,19.20
2018-05-04T05:57:01.694Z,19.70
2018-05-04T05:59:33.553Z,20.00
2018-05-04T06:02:05.454Z,20.20
2018-05-04T06:04:37.430Z,20.60
2018-05-04T06:07:09.407Z,20.80
2018-05-04T06:09:41.278Z,21.40
2018-05-04T06:12:14.015Z,22.20
2018-05-04T06:14:46.143Z,22.20
2018-05-04T06:17:18.307Z,22.60
2018-05-04T06:19:50.187Z,22.90
2018-05-04T06:22:22.087Z,23.30
2018-05-04T06:24:53.969Z,23.60
2018-05-04T06:27:26.638Z,24.10
2018-05-04T06:29:58.631Z,24.00
2018-05-04T06:32:30.541Z,24.40
2018-05-04T06:35:02.417Z,24.70
2018-05-04T06:37:34.341Z,24.40
2018-05-04T06:40:06.221Z,24.10
2018-05-04T06:42:38.120Z,23.50
2018-05-04T06:45:11.014Z,22.30
2018-05-04T06:47:42.938Z,22.30
2018-05-04T06:50:14.807Z,22.80
2018-05-04T06:52:46.701Z,22.40
2018-05-04T06:55:18.582Z,22.80
2018-05-04T06:57:50.502Z,23.70
2018-05-04T07:00:23.151Z,24.50
2018-05-04T07:02:55.060Z,24.50
2018-05-04T07:05:26.931Z,24.10
2018-05-04T07:07:58.832Z,24.00
2018-05-04T07:10:31.082Z,24.20
2018-05-04T07:13:02.941Z,23.90
2018-05-04T07:15:34.828Z,23.70
2018-05-04T07:18:07.034Z,22.90
2018-05-04T07:20:38.914Z,22.30
2018-05-04T07:23:10.818Z,22.30
2018-05-04T07:25:42.694Z,22.30
2018-05-04T07:28:15.595Z,22.60
2018-05-04T07:30:47.484Z,22.60
2018-05-04T07:33:19.378Z,22.20
2018-05-04T07:35:51.612Z,22.50
2018-05-04T07:38:23.757Z,22.60
2018-05-04T07:40:55.723Z,22.10
2018-05-04T07:43:27.610Z,21.40
2018-05-04T07:46:00.422Z,21.30
2018-05-04T07:48:32.329Z,22.00
2018-05-04T07:51:04.201Z,22.10
2018-05-04T07:53:36.100Z,22.70
2018-05-04T07:56:07.978Z,22.80
2018-05-04T07:58:40.646Z,22.50
2018-05-04T08:01:12.522Z,22.50
2018-05-04T08:03:45.190Z,22.90
2018-05-04T08:06:17.826Z,23.10
2018-05-04T08:08:49.734Z,23.10
2018-05-04T08:11:22.378Z,22.40
2018-05-04T08:13:54.283Z,22.40
2018-05-04T08:16:27.016Z,22.20
2018-05-04T08:18:59.235Z,22.10
2018-05-04T08:21:31.118Z,22.10
2018-05-04T08:24:03.380Z,21.60
2018-05-04T08:26:35.531Z,21.00
2018-05-04T08:29:07.701Z,21.00
2018-05-04T08:31:39.585Z,21.20
2018-05-04T08:34:11.566Z,21.50
2018-05-04T08:36:43.526Z,22.10
2018-05-04T08:39:15.751Z,22.50
2018-05-04T08:41:47.638Z,22.70
2018-05-04T08:44:19.674Z,22.80
2018-05-04T08:46:52.431Z,22.10
2018-05-04T08:49:24.622Z,22.10
2018-05-04T08:51:56.509Z,21.70
2018-05-04T08:54:28.829Z,22.20
2018-05-04T08:57:00.671Z,22.60
2018-05-04T08:59:32.590Z,22.60
2018-05-04T09:02:04.463Z,22.60
2018-05-04T09:04:36.358Z,22.80
2018-05-04T09:07:08.242Z,22.70
2018-05-04T09:09:40.997Z,22.10
2018-05-04T09:12:13.786Z,22.10
2018-05-04T09:14:45.694Z,22.00
2018-05-04T09:17:17.570Z,21.40
2018-05-04T09:19:50.320Z,22.10
2018-05-04T09:22:22.113Z,22.10
2018-05-04T09:24:54.010Z,22.50
2018-05-04T09:27:26.658Z,21.70
2018-05-04T09:29:59.341Z,21.00
2018-05-04T09:32:31.225Z,21.00
2018-05-04T09:35:03.952Z,20.70
2018-05-04T09:37:35.858Z,20.70
2018-05-04T09:40:07.753Z,20.80
2018-05-04T09:42:39.646Z,20.70
2018-05-04T09:45:11.540Z,21.00
2018-05-04T09:47:43.422Z,21.40
2018-05-04T09:50:16.109Z,21.70
2018-05-04T09:52:48.750Z,21.90
2018-05-04T09:55:22.161Z,22.50
2018-05-04T09:57:54.358Z,22.50
2018-05-04T10:00:26.276Z,22.80
2018-05-04T10:02:58.487Z,22.90
2018-05-04T10:05:30.494Z,22.90
2018-05-04T10:08:02.375Z,22.80
2018-05-04T10:10:34.275Z,23.10
2018-05-04T10:13:06.163Z,23.20
2018-05-04T10:15:38.070Z,23.40
2018-05-04T10:18:10.975Z,23.90
2018-05-04T10:20:42.862Z,23.90
2018-05-04T10:23:14.741Z,24.20
2018-05-04T10:25:46.641Z,24.50
2018-05-04T10:28:19.282Z,25.10
2018-05-04T10:30:51.175Z,25.10
2018-05-04T10:33:23.814Z,24.40
2018-05-04T10:35:55.740Z,24.40
2018-05-04T10:38:27.693Z,24.10
2018-05-04T10:40:59.523Z,24.00
2018-05-04T10:43:31.402Z,24.00
2018-05-04T10:46:04.063Z,24.50
2018-05-04T10:48:35.935Z,24.50
2018-05-04T10:51:08.602Z,25.20
2018-05-04T10:53:40.515Z,25.20
2018-05-04T10:56:12.417Z,24.20
2018-05-04T10:58:44.299Z,23.00
2018-05-04T11:01:16.967Z,21.30
2018-05-04T11:03:48.838Z,21.30
2018-05-04T11:06:21.494Z,20.60
2018-05-04T11:08:53.690Z,20.50
2018-05-04T11:11:25.590Z,20.20
2018-05-04T11:13:58.537Z,19.60
2018-05-04T11:16:30.449Z,19.60
2018-05-04T11:19:02.362Z,19.50
2018-05-04T11:21:34.266Z,19.50
2018-05-04T11:24:06.166Z,19.50
2018-05-04T11:26:38.829Z,19.30
2018-05-04T11:29:10.701Z,19.30
2018-05-04T11:31:43.367Z,19.40
2018-05-04T11:34:15.568Z,19.40
2018-05-04T11:36:47.480Z,19.40
2018-05-04T11:39:19.359Z,19.40
2018-05-04T11:41:51.262Z,19.40
2018-05-04T11:44:23.147Z,19.60
2018-05-04T11:46:55.062Z,19.60
2018-05-04T11:49:27.711Z,19.60
2018-05-04T11:51:59.609Z,19.60
2018-05-04T11:54:31.565Z,19.70
2018-05-04T11:57:04.238Z,19.70
2018-05-04T11:59:36.882Z,19.60
2018-05-04T12:02:08.786Z,19.60
2018-05-04T12:04:40.661Z,19.60
2018-05-04T12:07:12.810Z,19.50
2018-05-04T12:09:44.698Z,19.40
2018-05-04T12:12:16.581Z,19.40
2018-05-04T12:14:48.458Z,19.40
2018-05-04T12:17:20.359Z,19.50
2018-05-04T12:19:52.270Z,19.60
2018-05-04T12:22:24.162Z,19.60
2018-05-04T12:24:56.824Z,19.70
2018-05-04T12:27:28.718Z,19.70
2018-05-04T12:30:00.598Z,19.70
2018-05-04T12:32:32.508Z,19.70
2018-05-04T12:35:04.387Z,19.70
2018-05-04T12:37:37.050Z,19.60
2018-05-04T12:40:09.690Z,19.60
2018-05-04T12:42:41.605Z,19.60
2018-05-04T12:45:13.774Z,19.70
2018-05-04T12:47:45.671Z,19.70
2018-05-04T12:50:17.804Z,19.60
2018-05-04T12:52:49.699Z,19.70
2018-05-04T12:55:22.334Z,19.70
2018-05-04T12:57:54.238Z,19.70
2018-05-04T13:00:26.113Z,19.70
2018-05-04T13:02:57.999Z,19.70
2018-05-04T13:05:30.643Z,19.60
2018-05-04T13:08:02.535Z,19.60
2018-05-04T13:10:34.462Z,19.70
2018-05-04T13:13:06.354Z,19.70
2018-05-04T13:15:38.226Z,19.60
2018-05-04T13:18:11.214Z,19.70
2018-05-04T13:20:43.146Z,19.60
2018-05-04T13:23:17.838Z,19.70
2018-05-04T13:25:51.763Z,19.80
2018-05-04T13:28:25.822Z,19.70
2018-05-04T13:30:58.455Z,19.70
2018-05-04T13:33:30.744Z,19.70
2018-05-04T13:36:02.564Z,19.70
2018-05-04T13:38:34.489Z,19.70
2018-05-04T13:41:06.669Z,19.70
2018-05-04T13:43:38.574Z,19.70
2018-05-04T13:46:10.502Z,19.70
2018-05-04T13:48:42.404Z,19.70
2018-05-04T13:51:14.383Z,19.70
2018-05-04T13:53:46.478Z,19.70
2018-05-04T13:56:18.647Z,19.70
2018-05-04T13:58:50.546Z,19.70
2018-05-04T14:01:22.422Z,19.70
2018-05-04T14:03:54.361Z,19.70
2018-05-04T14:06:26.238Z,19.70
2018-05-04T14:08:58.454Z,19.70
2018-05-04T14:11:30.341Z,19.70
2018-05-04T14:14:02.482Z,19.80
2018-05-04T14:16:34.368Z,19.70
2018-05-04T14:19:06.258Z,19.60
2018-05-04T14:21:38.480Z,19.60
2018-05-04T14:24:10.391Z,19.60
2018-05-04T14:26:42.265Z,19.70
2018-05-04T14:29:14.933Z,19.80
2018-05-04T14:31:46.815Z,19.90
2018-05-04T14:34:19.485Z,19.80
2018-05-04T14:36:52.139Z,19.80
2018-05-04T14:39:24.043Z,19.80
2018-05-04T14:41:55.915Z,19.80
2018-05-04T14:44:27.827Z,19.80
2018-05-04T14:46:59.719Z,19.90
2018-05-04T14:49:32.716Z,19.70
2018-05-04T14:52:04.586Z,19.70
2018-05-04T14:54:36.497Z,19.70
2018-05-04T14:57:08.371Z,19.80
2018-05-04T14:59:41.025Z,19.80
2018-05-04T15:02:12.898Z,19.80
2018-05-04T15:04:44.846Z,19.90
2018-05-04T15:07:16.718Z,19.90
2018-05-04T15:09:48.660Z,19.80
2018-05-04T15:12:20.553Z,19.80
2018-05-04T15:14:53.218Z,19.80
2018-05-04T15:17:25.130Z,19.80
2018-05-04T15:19:57.019Z,19.80
2018-05-04T15:22:28.903Z,19.80
2018-05-04T15:25:00.815Z,19.80
2018-05-04T15:27:32.683Z,19.80
2018-05-04T15:30:04.821Z,19.80
2018-05-04T15:32:36.699Z,19.80
2018-05-04T15:35:08.610Z,19.80
2018-05-04T15:37:40.808Z,19.80
2018-05-04T15:40:12.722Z,19.80
2018-05-04T15:42:44.834Z,19.80
2018-05-04T15:45:16.746Z,19.80
2018-05-04T15:47:48.622Z,19.80
2018-05-04T15:50:20.539Z,19.90
2018-05-04T15:52:52.405Z,19.80
2018-05-04T15:55:24.305Z,19.80
2018-05-04T15:57:56.182Z,19.80
2018-05-04T16:00:30.231Z,19.80
2018-05-04T16:03:02.102Z,19.80
2018-05-04T16:05:33.996Z,19.80
2018-05-04T16:08:06.690Z,19.80
2018-05-04T16:10:39.410Z,19.70
2018-05-04T16:13:11.282Z,19.70
2018-05-04T16:15:45.363Z,19.70
2018-05-04T16:18:17.233Z,19.70
2018-05-04T16:20:49.205Z,19.60
2018-05-04T16:23:21.087Z,19.60
2018-05-04T16:25:52.997Z,19.50
2018-05-04T16:28:25.634Z,19.50
2018-05-04T16:30:57.846Z,19.50
2018-05-04T16:33:29.724Z,19.40
2018-05-04T16:36:01.619Z,19.40
2018-05-04T16:38:33.588Z,19.40
2018-05-04T16:41:05.490Z,19.40
2018-05-04T16:43:37.390Z,19.30
2018-05-04T16:46:09.618Z,19.30
2018-05-04T16:48:41.786Z,19.30
2018-05-04T16:51:13.687Z,19.30
2018-05-04T16:53:45.566Z,19.30
2018-05-04T16:56:17.513Z,19.30
2018-05-04T16:58:49.469Z,19.30
2018-05-04T17:01:21.696Z,19.30
2018-05-04T17:03:53.587Z,19.30
2018-05-04T17:06:25.477Z,19.30
2018-05-04T17:08:57.421Z,19.30
2018-05-04T17:11:30.105Z,19.20
2018-05-04T17:14:02.078Z,19.20
2018-05-04T17:16:33.979Z,19.20
2018-05-04T17:19:06.146Z,19.10
2018-05-04T17:21:38.310Z,19.10
2018-05-04T17:24:10.235Z,19.10
2018-05-04T17:26:42.177Z,19.00
2018-05-04T17:29:14.153Z,19.00
2018-05-04T17:31:46.050Z,18.90
2018-05-04T17:34:18.786Z,18.90
2018-05-04T17:36:50.747Z,18.90
2018-05-04T17:39:22.622Z,18.90
2018-05-04T17:41:54.582Z,18.90
2018-05-04T17:44:26.686Z,18.80
2018-05-04T17:46:58.586Z,18.80
2018-05-04T17:49:30.468Z,18.80
2018-05-04T17:52:02.422Z,18.70
2018-05-04T17:54:34.292Z,18.70
2018-05-04T17:57:06.498Z,18.70
2018-05-04T17:59:38.428Z,18.70
2018-05-04T18:02:10.323Z,18.60
2018-05-04T18:04:42.482Z,18.60
2018-05-04T18:07:14.391Z,18.60
2018-05-04T18:09:46.268Z,18.50
2018-05-04T18:12:18.235Z,18.50
2018-05-04T18:14:50.439Z,18.50
2018-05-04T18:17:22.688Z,18.40
2018-05-04T18:19:54.481Z,18.40
2018-05-04T18:22:26.374Z,18.30
2018-05-04T18:24:58.285Z,18.30
2018-05-04T18:27:31.010Z,18.20
2018-05-04T18:30:03.238Z,18.20
2018-05-04T18:32:35.148Z,18.20
2018-05-04T18:35:07.264Z,18.10
2018-05-04T18:37:39.205Z,18.00
2018-05-04T18:40:11.855Z,18.00
2018-05-04T18:42:44.074Z,18.00
2018-05-04T18:45:15.969Z,17.90
2018-05-04T18:47:47.874Z,17.90
2018-05-04T18:50:20.519Z,17.80
2018-05-04T18:52:52.641Z,17.80
2018-05-04T18:55:24.532Z,17.80
2018-05-04T18:57:56.462Z,17.70
2018-05-04T19:00:28.352Z,17.70
2018-05-04T19:03:00.264Z,17.60
2018-05-04T19:05:32.923Z,17.50
2018-05-04T19:08:04.811Z,17.50
2018-05-04T19:10:36.701Z,17.50
2018-05-04T19:13:08.602Z,17.50
2018-05-04T19:15:40.475Z,17.40
2018-05-04T19:18:13.138Z,17.30
2018-05-04T19:20:45.177Z,17.30
2018-05-04T19:23:17.011Z,17.20
2018-05-04T19:25:49.166Z,17.10
2018-05-04T19:28:21.124Z,17.10
2018-05-04T19:30:53.012Z,17.00
2018-05-04T19:33:25.249Z,17.00
2018-05-04T19:35:57.142Z,17.00
2018-05-04T19:38:29.046Z,17.00
2018-05-04T19:41:00.939Z,16.90
2018-05-04T19:43:32.845Z,16.90
2018-05-04T19:46:04.750Z,16.90
2018-05-04T19:48:37.740Z,16.80
2018-05-04T19:51:09.866Z,16.80
2018-05-04T19:53:42.071Z,16.80
2018-05-04T19:56:13.973Z,16.70
2018-05-04T19:58:45.928Z,16.60
2018-05-04T20:01:17.738Z,16.60
2018-05-04T20:03:50.410Z,16.50
2018-05-04T20:06:23.318Z,16.50
2018-05-04T20:08:55.725Z,16.50
2018-05-04T20:11:27.854Z,16.40
2018-05-04T20:14:00.965Z,16.30
2018-05-04T20:16:33.111Z,16.30
2018-05-04T20:19:05.947Z,16.30
2018-05-04T20:21:37.803Z,16.20
2018-05-04T20:24:09.702Z,16.20
2018-05-04T20:26:42.349Z,16.20
2018-05-04T20:29:14.240Z,16.20
2018-05-04T20:31:47.135Z,16.10
2018-05-04T20:34:19.301Z,16.00
2018-05-04T20:36:51.234Z,16.00
2018-05-04T20:39:23.195Z,16.00
2018-05-04T20:41:55.073Z,16.00
2018-05-04T20:44:30.160Z,15.90
2018-05-04T20:47:02.037Z,15.90
2018-05-04T20:49:33.927Z,15.80
